createdAt,value
2023-04-11T00:00:21.590Z,0
2023-04-11T00:01:22.209Z,0
2023-04-11T00:02:22.951Z,0
2023-04-11T00:03:23.627Z,0
2023-04-11T00:04:24.307Z,0
2023-04-11T00:05:24.880Z,0
2023-04-11T00:06:25.467Z,0
2023-04-11T00:07:26.064Z,0
2023-04-11T00:08:26.656Z,0
2023-04-11T00:09:27.246Z,0
2023-04-11T00:10:27.848Z,0
2023-04-11T00:11:28.431Z,0
2023-04-11T00:12:29.041Z,0
2023-04-11T00:13:29.626Z,0
2023-04-11T00:14:30.218Z,0
2023-04-11T00:15:30.811Z,0
2023-04-11T00:16:31.503Z,0
2023-04-11T00:17:32.098Z,0
2023-04-11T00:18:32.695Z,0
2023-04-11T00:19:33.289Z,0
2023-04-11T00:20:33.894Z,0
2023-04-11T00:21:34.475Z,0
2023-04-11T00:22:35.068Z,0
2023-04-11T00:23:35.663Z,0
2023-04-11T00:24:36.262Z,0
2023-04-11T00:25:36.856Z,0
2023-04-11T00:26:37.454Z,0
2023-04-11T00:27:38.040Z,0
2023-04-11T00:28:38.636Z,0
2023-04-11T00:29:39.249Z,0
2023-04-11T00:30:39.826Z,0
2023-04-11T00:31:40.417Z,0
2023-04-11T00:32:41.068Z,0
2023-04-11T00:33:41.620Z,0
2023-04-11T00:34:42.213Z,0
2023-04-11T00:35:42.809Z,0
2023-04-11T00:36:43.569Z,0
2023-04-11T00:37:44.029Z,0
2023-04-11T00:38:44.674Z,0
2023-04-11T00:39:45.350Z,0
2023-04-11T00:40:45.944Z,0
2023-04-11T00:41:46.561Z,0
2023-04-11T00:42:47.181Z,0
2023-04-11T00:43:47.782Z,0
2023-04-11T00:44:48.385Z,0
2023-04-11T00:45:49.055Z,0
2023-04-11T00:46:49.609Z,0
2023-04-11T00:47:50.267Z,0
2023-04-11T00:48:50.835Z,0
2023-04-11T00:49:51.424Z,0
2023-04-11T00:50:52.016Z,0
2023-04-11T00:51:52.608Z,0
2023-04-11T00:52:53.201Z,0
2023-04-11T00:53:53.821Z,0
2023-04-11T00:54:54.425Z,0
2023-04-11T00:55:55.018Z,0
2023-04-11T00:56:55.615Z,0
2023-04-11T00:57:56.206Z,0
2023-04-11T00:58:56.998Z,0
2023-04-11T00:59:57.684Z,0
2023-04-11T01:00:58.319Z,0
2023-04-11T01:01:59.014Z,0
2023-04-11T01:02:59.833Z,0
2023-04-11T01:04:00.833Z,0
2023-04-11T01:05:01.622Z,0
2023-04-11T01:06:02.208Z,0
2023-04-11T01:07:02.801Z,0
2023-04-11T01:08:03.414Z,0
2023-04-11T01:09:04.008Z,0
2023-04-11T01:10:04.597Z,0
2023-04-11T01:11:05.202Z,0
2023-04-11T01:12:05.784Z,0
2023-04-11T01:13:06.397Z,0
2023-04-11T01:14:07.017Z,0
2023-04-11T01:15:07.610Z,0
2023-04-11T01:16:08.239Z,0
2023-04-11T01:17:08.835Z,0
2023-04-11T01:18:09.511Z,0
2023-04-11T01:19:10.142Z,0
2023-04-11T01:20:10.739Z,0
2023-04-11T01:21:11.336Z,0
2023-04-11T01:22:11.951Z,0
2023-04-11T01:23:12.542Z,0
2023-04-11T01:24:13.161Z,0
2023-04-11T01:25:13.768Z,0
2023-04-11T01:26:14.364Z,0
2023-04-11T01:27:14.960Z,0
2023-04-11T01:28:15.554Z,0
2023-04-11T01:29:16.167Z,0
2023-04-11T01:30:16.764Z,0
2023-04-11T01:31:17.480Z,0
2023-04-11T01:32:18.124Z,0
2023-04-11T01:33:18.690Z,0
2023-04-11T01:34:19.287Z,0
2023-04-11T01:35:19.926Z,0
2023-04-11T01:36:20.515Z,0
2023-04-11T01:37:21.112Z,0
2023-04-11T01:38:21.704Z,0
2023-04-11T01:39:22.314Z,0
2023-04-11T01:40:22.893Z,0
2023-04-11T01:41:23.497Z,0
2023-04-11T01:42:24.093Z,0
2023-04-11T01:43:24.696Z,0
2023-04-11T01:44:25.287Z,0
2023-04-11T01:45:25.890Z,0
2023-04-11T01:46:26.482Z,0
2023-04-11T01:47:27.111Z,0
2023-04-11T01:48:27.754Z,0
2023-04-11T01:49:28.356Z,0
2023-04-11T01:50:28.950Z,0
2023-04-11T01:51:29.552Z,0
2023-04-11T01:52:30.139Z,0
2023-04-11T01:53:30.733Z,0
2023-04-11T01:54:31.327Z,0
2023-04-11T01:55:31.937Z,0
2023-04-11T01:56:32.532Z,0
2023-04-11T01:57:33.154Z,0
2023-04-11T01:58:33.738Z,0
2023-04-11T01:59:34.360Z,0
2023-04-11T02:00:34.947Z,0
2023-04-11T02:01:35.594Z,0
2023-04-11T02:02:36.289Z,0
2023-04-11T02:03:37.063Z,0
2023-04-11T02:04:37.699Z,0
2023-04-11T02:05:38.292Z,0
2023-04-11T02:06:38.883Z,0
2023-04-11T02:07:39.501Z,0
2023-04-11T02:08:40.092Z,0
2023-04-11T02:09:40.686Z,0
2023-04-11T02:10:41.282Z,0
2023-04-11T02:11:41.881Z,0
2023-04-11T02:12:42.470Z,0
2023-04-11T02:13:43.065Z,0
2023-04-11T02:14:43.665Z,0
2023-04-11T02:15:44.264Z,0
2023-04-11T02:16:44.842Z,0
2023-04-11T02:17:45.695Z,0
2023-04-11T02:18:46.329Z,0
2023-04-11T02:19:46.916Z,0
2023-04-11T02:20:47.512Z,0
2023-04-11T02:21:48.106Z,0
2023-04-11T02:22:48.704Z,0
2023-04-11T02:23:49.312Z,0
2023-04-11T02:24:49.907Z,0
2023-04-11T02:25:50.502Z,0
2023-04-11T02:26:51.096Z,0
2023-04-11T02:27:51.690Z,0
2023-04-11T02:28:52.324Z,0
2023-04-11T02:29:52.874Z,0
2023-04-11T02:30:53.555Z,0
2023-04-11T02:31:54.233Z,0
2023-04-11T02:32:54.808Z,0
2023-04-11T02:33:55.452Z,0
2023-04-11T02:34:56.063Z,0
2023-04-11T02:35:56.723Z,0
2023-04-11T02:36:57.279Z,0
2023-04-11T02:37:57.889Z,0
2023-04-11T02:38:58.482Z,0
2023-04-11T02:39:59.074Z,0
2023-04-11T02:40:59.672Z,0
2023-04-11T02:42:00.261Z,0
2023-04-11T02:43:00.854Z,0
2023-04-11T02:44:01.511Z,0
2023-04-11T02:45:02.145Z,0
2023-04-11T02:46:12.606Z,0
2023-04-11T02:47:04.407Z,0
2023-04-11T02:48:05.089Z,0
2023-04-11T02:49:05.645Z,0
2023-04-11T02:50:06.243Z,0
2023-04-11T02:51:06.828Z,0
2023-04-11T02:52:07.420Z,0
2023-04-11T02:53:08.015Z,0
2023-04-11T02:54:08.606Z,0
2023-04-11T02:55:09.200Z,0
2023-04-11T02:56:09.799Z,0
2023-04-11T02:57:10.436Z,0
2023-04-11T02:58:11.034Z,0
2023-04-11T02:59:11.620Z,0
2023-04-11T03:00:12.219Z,0
2023-04-11T03:01:12.894Z,0
2023-04-11T03:02:13.547Z,0
2023-04-11T03:03:14.138Z,0
2023-04-11T03:04:14.848Z,0
2023-04-11T03:05:15.417Z,0
2023-04-11T03:06:16.030Z,0
2023-04-11T03:07:16.620Z,0
2023-04-11T03:08:17.224Z,0
2023-04-11T03:09:17.813Z,0
2023-04-11T03:10:18.444Z,0
2023-04-11T03:11:19.035Z,0
2023-04-11T03:12:19.630Z,0
2023-04-11T03:13:20.249Z,0
2023-04-11T03:14:20.846Z,0
2023-04-11T03:15:21.457Z,0
2023-04-11T03:16:22.095Z,0
2023-04-11T03:17:22.643Z,0
2023-04-11T03:18:23.232Z,0
2023-04-11T03:19:23.828Z,0
2023-04-11T03:20:24.436Z,0
2023-04-11T03:21:25.032Z,0
2023-04-11T03:22:25.628Z,0
2023-04-11T03:23:26.222Z,0
2023-04-11T03:24:26.822Z,0
2023-04-11T03:25:27.428Z,0
2023-04-11T03:26:28.022Z,0
2023-04-11T03:27:28.618Z,0
2023-04-11T03:28:29.215Z,0
2023-04-11T03:29:29.846Z,0
2023-04-11T03:30:30.451Z,0
2023-04-11T03:31:31.071Z,0
2023-04-11T03:32:31.674Z,0
2023-04-11T03:33:32.238Z,0
2023-04-11T03:34:32.844Z,0
2023-04-11T03:35:33.429Z,0
2023-04-11T03:36:34.037Z,0
2023-04-11T03:37:34.635Z,0
2023-04-11T03:38:35.221Z,0
2023-04-11T03:39:35.812Z,0
2023-04-11T03:40:36.406Z,0
2023-04-11T03:41:37.000Z,0
2023-04-11T03:42:37.595Z,0
2023-04-11T03:43:38.185Z,0
2023-04-11T03:44:38.790Z,0
2023-04-11T03:45:39.372Z,0
2023-04-11T03:46:39.981Z,0
2023-04-11T03:47:40.618Z,0
2023-04-11T03:48:41.200Z,0
2023-04-11T03:49:41.781Z,0
2023-04-11T03:50:42.376Z,0
2023-04-11T03:51:42.971Z,0
2023-04-11T03:52:43.564Z,0
2023-04-11T03:53:44.156Z,0
2023-04-11T03:54:47.084Z,0
2023-04-11T03:55:46.335Z,0
2023-04-11T03:56:46.944Z,0
2023-04-11T03:57:47.518Z,0
2023-04-11T03:58:48.114Z,0
2023-04-11T03:59:48.723Z,0
2023-04-11T04:00:49.295Z,0
2023-04-11T04:01:49.940Z,0
2023-04-11T04:02:50.659Z,0
2023-04-11T04:03:51.597Z,0
2023-04-11T04:04:52.480Z,0
2023-04-11T04:05:52.986Z,0
2023-04-11T04:06:53.575Z,0
2023-04-11T04:07:55.784Z,0
2023-04-11T04:08:55.755Z,0
2023-04-11T04:09:56.346Z,0
2023-04-11T04:10:56.943Z,0
2023-04-11T04:11:57.572Z,0
2023-04-11T04:12:58.133Z,0
2023-04-11T04:13:58.883Z,0
2023-04-11T04:14:59.362Z,0
2023-04-11T04:16:01.878Z,0
2023-04-11T04:17:01.534Z,0
2023-04-11T04:18:02.215Z,0
2023-04-11T04:19:02.784Z,0
2023-04-11T04:20:03.412Z,0
2023-04-11T04:21:03.973Z,0
2023-04-11T04:22:04.570Z,0
2023-04-11T04:23:05.183Z,0
2023-04-11T04:24:05.777Z,0
2023-04-11T04:25:06.398Z,0
2023-04-11T04:26:06.990Z,0
2023-04-11T04:27:07.593Z,0
2023-04-11T04:28:08.192Z,0
2023-04-11T04:29:08.784Z,5
2023-04-11T04:30:09.740Z,5
2023-04-11T04:31:10.333Z,5
2023-04-11T04:32:11.268Z,5
2023-04-11T04:33:11.923Z,11
2023-04-11T04:34:12.514Z,11
2023-04-11T04:35:13.109Z,11
2023-04-11T04:36:13.716Z,11
2023-04-11T04:37:14.321Z,11
2023-04-11T04:38:14.920Z,11
2023-04-11T04:39:15.515Z,11
2023-04-11T04:40:16.142Z,16
2023-04-11T04:41:16.735Z,16
2023-04-11T04:42:17.325Z,11
2023-04-11T04:43:17.923Z,5
2023-04-11T04:44:18.519Z,11
2023-04-11T04:45:19.117Z,16
2023-04-11T04:46:19.757Z,33
2023-04-11T04:47:20.329Z,39
2023-04-11T04:48:20.928Z,50
2023-04-11T04:49:21.527Z,50
2023-04-11T04:50:22.142Z,56
2023-04-11T04:51:22.753Z,56
2023-04-11T04:52:23.352Z,56
2023-04-11T04:53:23.951Z,56
2023-04-11T04:54:24.549Z,56
2023-04-11T04:55:25.145Z,56
2023-04-11T04:56:25.744Z,56
2023-04-11T04:57:26.342Z,56
2023-04-11T04:58:26.946Z,61
2023-04-11T04:59:27.537Z,67
2023-04-11T05:00:28.142Z,73
2023-04-11T05:01:28.743Z,78
2023-04-11T05:02:29.462Z,84
2023-04-11T05:03:30.281Z,90
2023-04-11T05:04:30.962Z,90
2023-04-11T05:05:31.574Z,90
2023-04-11T05:06:32.165Z,90
2023-04-11T05:07:32.771Z,95
2023-04-11T05:08:33.356Z,101
2023-04-11T05:09:33.950Z,101
2023-04-11T05:10:34.553Z,101
2023-04-11T05:11:35.153Z,106
2023-04-11T05:12:35.750Z,112
2023-04-11T05:13:36.354Z,112
2023-04-11T05:14:36.949Z,118
2023-04-11T05:15:37.544Z,118
2023-04-11T05:16:38.198Z,123
2023-04-11T05:17:38.803Z,123
2023-04-11T05:18:39.348Z,123
2023-04-11T05:19:39.987Z,123
2023-04-11T05:20:40.568Z,129
2023-04-11T05:21:41.190Z,129
2023-04-11T05:22:41.783Z,135
2023-04-11T05:23:42.381Z,123
2023-04-11T05:24:43.000Z,106
2023-04-11T05:25:43.597Z,95
2023-04-11T05:26:44.262Z,67
2023-04-11T05:27:44.818Z,67
2023-04-11T05:28:45.427Z,101
2023-04-11T05:29:46.050Z,157
2023-04-11T05:30:46.709Z,180
2023-04-11T05:31:47.262Z,168
2023-04-11T05:32:47.912Z,168
2023-04-11T05:33:48.491Z,163
2023-04-11T05:34:49.084Z,112
2023-04-11T05:35:49.733Z,84
2023-04-11T05:36:50.321Z,67
2023-04-11T05:37:50.915Z,45
2023-04-11T05:38:51.531Z,39
2023-04-11T05:39:52.132Z,39
2023-04-11T05:40:52.758Z,39
2023-04-11T05:41:53.330Z,39
2023-04-11T05:42:53.933Z,56
2023-04-11T05:43:54.810Z,50
2023-04-11T05:44:55.557Z,45
2023-04-11T05:45:56.174Z,33
2023-04-11T05:46:56.741Z,33
2023-04-11T05:47:57.368Z,33
2023-04-11T05:48:57.981Z,28
2023-04-11T05:49:58.550Z,22
2023-04-11T05:50:59.164Z,22
2023-04-11T05:51:59.760Z,22
2023-04-11T05:53:00.359Z,22
2023-04-11T05:54:00.958Z,22
2023-04-11T05:55:01.582Z,16
2023-04-11T05:56:02.196Z,16
2023-04-11T05:57:02.813Z,16
2023-04-11T05:58:03.462Z,16
2023-04-11T05:59:04.010Z,22
2023-04-11T06:00:04.606Z,22
2023-04-11T06:01:05.224Z,22
2023-04-11T06:02:05.909Z,28
2023-04-11T06:03:06.531Z,28
2023-04-11T06:04:07.216Z,33
2023-04-11T06:05:07.776Z,39
2023-04-11T06:06:08.321Z,45
2023-04-11T06:07:08.942Z,56
2023-04-11T06:08:09.537Z,61
2023-04-11T06:09:10.134Z,67
2023-04-11T06:10:10.751Z,73
2023-04-11T06:11:11.352Z,78
2023-04-11T06:12:11.950Z,90
2023-04-11T06:13:12.573Z,101
2023-04-11T06:14:13.161Z,112
2023-04-11T06:15:13.804Z,112
2023-04-11T06:16:14.405Z,123
2023-04-11T06:17:14.993Z,135
2023-04-11T06:18:15.594Z,146
2023-04-11T06:19:16.195Z,157
2023-04-11T06:20:16.799Z,168
2023-04-11T06:21:17.391Z,180
2023-04-11T06:22:17.986Z,202
2023-04-11T06:23:18.619Z,225
2023-04-11T06:24:19.215Z,253
2023-04-11T06:25:19.819Z,275
2023-04-11T06:26:20.441Z,298
2023-04-11T06:27:21.044Z,326
2023-04-11T06:28:21.658Z,348
2023-04-11T06:29:22.260Z,376
2023-04-11T06:30:22.878Z,399
2023-04-11T06:31:23.552Z,427
2023-04-11T06:32:24.271Z,455
2023-04-11T06:33:24.834Z,478
2023-04-11T06:34:25.462Z,506
2023-04-11T06:35:26.069Z,540
2023-04-11T06:36:26.673Z,562
2023-04-11T06:37:27.269Z,596
2023-04-11T06:38:27.870Z,618
2023-04-11T06:39:28.489Z,646
2023-04-11T06:40:29.118Z,658
2023-04-11T06:41:29.687Z,675
2023-04-11T06:42:30.290Z,686
2023-04-11T06:43:30.891Z,686
2023-04-11T06:44:31.739Z,686
2023-04-11T06:45:32.217Z,720
2023-04-11T06:46:32.886Z,753
2023-04-11T06:47:33.496Z,765
2023-04-11T06:48:34.043Z,832
2023-04-11T06:49:34.643Z,691
2023-04-11T06:50:35.262Z,776
2023-04-11T06:51:35.863Z,736
2023-04-11T06:52:36.463Z,736
2023-04-11T06:53:37.089Z,720
2023-04-11T06:54:37.718Z,680
2023-04-11T06:55:38.296Z,675
2023-04-11T06:56:38.898Z,669
2023-04-11T06:57:39.513Z,675
2023-04-11T06:58:40.116Z,675
2023-04-11T06:59:40.727Z,675
2023-04-11T07:00:41.310Z,675
2023-04-11T07:01:42.034Z,675
2023-04-11T07:02:42.772Z,663
2023-04-11T07:03:43.437Z,658
2023-04-11T07:04:44.275Z,658
2023-04-11T07:05:44.871Z,658
2023-04-11T07:06:45.463Z,652
2023-04-11T07:07:46.064Z,652
2023-04-11T07:08:46.663Z,663
2023-04-11T07:09:47.263Z,675
2023-04-11T07:10:47.886Z,691
2023-04-11T07:11:48.485Z,703
2023-04-11T07:12:49.082Z,669
2023-04-11T07:13:49.687Z,652
2023-04-11T07:14:50.283Z,579
2023-04-11T07:15:50.928Z,534
2023-04-11T07:16:51.494Z,624
2023-04-11T07:17:52.969Z,652
2023-04-11T07:18:53.644Z,691
2023-04-11T07:19:54.247Z,714
2023-04-11T07:20:55.063Z,691
2023-04-11T07:21:55.681Z,675
2023-04-11T07:22:56.286Z,658
2023-04-11T07:23:57.110Z,641
2023-04-11T07:24:57.526Z,630
2023-04-11T07:25:58.111Z,618
2023-04-11T07:26:58.726Z,618
2023-04-11T07:27:59.332Z,613
2023-04-11T07:28:59.986Z,607
2023-04-11T07:30:00.582Z,613
2023-04-11T07:31:01.206Z,630
2023-04-11T07:32:01.902Z,658
2023-04-11T07:33:02.525Z,691
2023-04-11T07:34:03.131Z,736
2023-04-11T07:35:03.701Z,815
2023-04-11T07:36:04.311Z,894
2023-04-11T07:37:04.900Z,916
2023-04-11T07:38:05.497Z,894
2023-04-11T07:39:06.095Z,871
2023-04-11T07:40:06.714Z,905
2023-04-11T07:41:07.319Z,1141
2023-04-11T07:42:07.930Z,1102
2023-04-11T07:43:08.512Z,928
2023-04-11T07:44:09.136Z,978
2023-04-11T07:45:09.734Z,1175
2023-04-11T07:46:10.582Z,1417
2023-04-11T07:47:11.232Z,1597
2023-04-11T07:48:11.837Z,1198
2023-04-11T07:49:12.460Z,933
2023-04-11T07:50:13.063Z,776
2023-04-11T07:51:13.677Z,765
2023-04-11T07:52:14.574Z,691
2023-04-11T07:53:15.169Z,832
2023-04-11T07:54:15.767Z,804
2023-04-11T07:55:16.411Z,770
2023-04-11T07:56:16.968Z,883
2023-04-11T07:57:17.568Z,871
2023-04-11T07:58:18.168Z,832
2023-04-11T07:59:18.786Z,1260
2023-04-11T08:00:19.552Z,1434
2023-04-11T08:01:20.052Z,1428
2023-04-11T08:02:20.807Z,1473
2023-04-11T08:03:21.525Z,1721
2023-04-11T08:04:22.401Z,1856
2023-04-11T08:05:23.202Z,1918
2023-04-11T08:06:23.851Z,1428
2023-04-11T08:07:24.448Z,1338
2023-04-11T08:08:25.050Z,1766
2023-04-11T08:09:25.658Z,1963
2023-04-11T08:10:26.283Z,1406
2023-04-11T08:11:26.887Z,1788
2023-04-11T08:12:27.492Z,1845
2023-04-11T08:13:28.109Z,2025
2023-04-11T08:14:28.713Z,2199
2023-04-11T08:15:29.314Z,2036
2023-04-11T08:16:29.943Z,2070
2023-04-11T08:17:30.586Z,1046
2023-04-11T08:18:31.177Z,2289
2023-04-11T08:19:31.780Z,2295
2023-04-11T08:20:32.379Z,2340
2023-04-11T08:21:32.978Z,1901
2023-04-11T08:22:33.604Z,2531
2023-04-11T08:23:34.207Z,1575
2023-04-11T08:24:34.803Z,2565
2023-04-11T08:25:35.405Z,1344
2023-04-11T08:26:36.010Z,2790
2023-04-11T08:27:36.629Z,1395
2023-04-11T08:28:37.245Z,1321
2023-04-11T08:29:37.850Z,2092
2023-04-11T08:30:38.492Z,1485
2023-04-11T08:31:39.038Z,1614
2023-04-11T08:32:39.701Z,1203
2023-04-11T08:33:40.329Z,1350
2023-04-11T08:34:40.891Z,1316
2023-04-11T08:35:41.542Z,1411
2023-04-11T08:36:42.111Z,1400
2023-04-11T08:37:42.736Z,1321
2023-04-11T08:38:43.333Z,1271
2023-04-11T08:39:43.957Z,967
2023-04-11T08:40:44.553Z,1113
2023-04-11T08:41:45.153Z,1575
2023-04-11T08:42:45.754Z,2475
2023-04-11T08:43:46.354Z,1333
2023-04-11T08:44:46.952Z,2446
2023-04-11T08:45:47.606Z,2413
2023-04-11T08:46:48.167Z,2047
2023-04-11T08:47:48.800Z,1985
2023-04-11T08:48:49.382Z,1198
2023-04-11T08:49:50.003Z,2424
2023-04-11T08:50:50.605Z,2390
2023-04-11T08:51:51.200Z,2503
2023-04-11T08:52:51.824Z,2621
2023-04-11T08:53:52.423Z,2559
2023-04-11T08:54:53.023Z,2632
2023-04-11T08:55:53.622Z,2424
2023-04-11T08:56:54.241Z,2401
2023-04-11T08:57:54.843Z,2497
2023-04-11T08:58:55.441Z,1417
2023-04-11T08:59:56.038Z,2615
2023-04-11T09:00:56.638Z,2593
2023-04-11T09:01:57.351Z,2531
2023-04-11T09:02:58.034Z,2626
2023-04-11T09:03:58.897Z,2671
2023-04-11T09:04:59.447Z,2745
2023-04-11T09:06:00.033Z,2621
2023-04-11T09:07:01.390Z,2683
2023-04-11T09:08:02.050Z,2846
2023-04-11T09:09:02.637Z,2756
2023-04-11T09:10:03.245Z,2778
2023-04-11T09:11:03.848Z,2311
2023-04-11T09:12:04.447Z,2531
2023-04-11T09:13:05.070Z,2576
2023-04-11T09:14:05.675Z,1985
2023-04-11T09:15:06.293Z,2598
2023-04-11T09:16:06.942Z,3178
2023-04-11T09:17:07.534Z,2283
2023-04-11T09:18:08.198Z,1327
2023-04-11T09:19:08.776Z,1254
2023-04-11T09:20:09.378Z,2340
2023-04-11T09:21:09.982Z,1293
2023-04-11T09:22:10.582Z,2126
2023-04-11T09:23:11.182Z,1063
2023-04-11T09:24:11.786Z,905
2023-04-11T09:25:12.388Z,1006
2023-04-11T09:26:12.980Z,978
2023-04-11T09:27:13.598Z,3166
2023-04-11T09:28:14.207Z,3487
2023-04-11T09:29:14.804Z,1980
2023-04-11T09:30:15.409Z,1496
2023-04-11T09:31:16.087Z,3560
2023-04-11T09:32:16.638Z,3526
2023-04-11T09:33:17.241Z,3560
2023-04-11T09:34:17.842Z,3723
2023-04-11T09:35:18.449Z,3830
2023-04-11T09:36:19.050Z,3836
2023-04-11T09:37:19.672Z,3892
2023-04-11T09:38:20.269Z,3870
2023-04-11T09:39:20.886Z,4061
2023-04-11T09:40:21.473Z,4297
2023-04-11T09:41:22.114Z,4460
2023-04-11T09:42:22.730Z,4421
2023-04-11T09:43:23.314Z,1558
2023-04-11T09:44:23.910Z,1665
2023-04-11T09:45:24.508Z,1704
2023-04-11T09:46:25.128Z,3982
2023-04-11T09:47:25.800Z,4055
2023-04-11T09:48:39.527Z,1378
2023-04-11T09:49:27.928Z,2008
2023-04-11T09:50:28.529Z,1462
2023-04-11T09:51:36.439Z,1535
2023-04-11T09:52:30.726Z,4173
2023-04-11T09:53:31.326Z,4235
2023-04-11T09:54:31.986Z,1524
2023-04-11T09:55:32.590Z,1760
2023-04-11T09:56:33.187Z,4471
2023-04-11T09:57:33.788Z,2115
2023-04-11T09:58:34.394Z,1423
2023-04-11T09:59:35.013Z,4241
2023-04-11T10:00:35.618Z,1575
2023-04-11T10:01:36.287Z,1215
2023-04-11T10:02:36.947Z,1456
2023-04-11T10:03:37.638Z,3690
2023-04-11T10:04:38.288Z,1974
2023-04-11T10:05:38.850Z,1237
2023-04-11T10:06:39.464Z,3026
2023-04-11T10:07:40.057Z,3723
2023-04-11T10:08:40.677Z,3948
2023-04-11T10:09:41.283Z,1625
2023-04-11T10:10:41.877Z,1220
2023-04-11T10:11:42.487Z,1215
2023-04-11T10:12:43.088Z,1254
2023-04-11T10:13:43.690Z,1344
2023-04-11T10:14:44.308Z,1665
2023-04-11T10:15:44.907Z,2131
2023-04-11T10:16:45.555Z,1923
2023-04-11T10:17:46.218Z,4241
2023-04-11T10:18:46.771Z,1895
2023-04-11T10:19:47.369Z,1822
2023-04-11T10:20:47.972Z,4179
2023-04-11T10:21:48.576Z,1749
2023-04-11T10:22:49.178Z,1569
2023-04-11T10:23:49.773Z,1726
2023-04-11T10:24:50.379Z,1046
2023-04-11T10:25:50.978Z,849
2023-04-11T10:26:51.610Z,821
2023-04-11T10:27:52.195Z,905
2023-04-11T10:28:52.793Z,928
2023-04-11T10:29:53.393Z,883
2023-04-11T10:30:54.011Z,978
2023-04-11T10:31:54.714Z,826
2023-04-11T10:32:55.442Z,680
2023-04-11T10:33:56.170Z,838
2023-04-11T10:34:56.864Z,4275
2023-04-11T10:35:57.512Z,2036
2023-04-11T10:36:58.102Z,1338
2023-04-11T10:37:58.719Z,736
2023-04-11T10:38:59.296Z,815
2023-04-11T10:39:59.905Z,1018
2023-04-11T10:41:00.511Z,1265
2023-04-11T10:42:01.107Z,2413
2023-04-11T10:43:01.707Z,1012
2023-04-11T10:44:02.309Z,883
2023-04-11T10:45:02.912Z,1046
2023-04-11T10:46:03.512Z,1141
2023-04-11T10:47:04.147Z,4010
2023-04-11T10:48:04.766Z,1648
2023-04-11T10:49:05.350Z,4353
2023-04-11T10:50:05.941Z,2525
2023-04-11T10:51:06.565Z,4196
2023-04-11T10:52:07.162Z,3988
2023-04-11T10:53:07.794Z,3830
2023-04-11T10:54:08.382Z,1113
2023-04-11T10:55:08.985Z,3763
2023-04-11T10:56:09.587Z,3678
2023-04-11T10:57:10.188Z,3841
2023-04-11T10:58:10.803Z,4033
2023-04-11T10:59:11.394Z,956
2023-04-11T11:00:12.045Z,1029
2023-04-11T11:01:21.270Z,4269
2023-04-11T11:02:14.337Z,984
2023-04-11T11:03:15.148Z,1063
2023-04-11T11:04:15.882Z,1366
2023-04-11T11:05:16.364Z,2188
2023-04-11T11:06:16.961Z,1316
2023-04-11T11:07:17.633Z,1310
2023-04-11T11:08:18.201Z,1130
2023-04-11T11:09:18.784Z,748
2023-04-11T11:10:19.383Z,495
2023-04-11T11:11:20.001Z,438
2023-04-11T11:12:20.596Z,506
2023-04-11T11:13:21.196Z,708
2023-04-11T11:14:21.797Z,3127
2023-04-11T11:15:22.402Z,4156
2023-04-11T11:16:23.030Z,2739
2023-04-11T11:17:23.710Z,2818
2023-04-11T11:18:24.239Z,1428
2023-04-11T11:19:24.859Z,1147
2023-04-11T11:20:25.486Z,945
2023-04-11T11:21:27.735Z,821
2023-04-11T11:22:27.203Z,787
2023-04-11T11:23:27.823Z,742
2023-04-11T11:24:28.425Z,731
2023-04-11T11:25:29.027Z,776
2023-04-11T11:26:29.644Z,736
2023-04-11T11:27:30.244Z,742
2023-04-11T11:28:30.856Z,736
2023-04-11T11:29:31.459Z,770
2023-04-11T11:30:32.059Z,905
2023-04-11T11:31:32.670Z,1096
2023-04-11T11:32:33.291Z,2452
2023-04-11T11:33:33.886Z,1575
2023-04-11T11:34:34.492Z,753
2023-04-11T11:35:35.090Z,720
2023-04-11T11:36:35.728Z,804
2023-04-11T11:37:36.291Z,905
2023-04-11T11:38:36.927Z,1119
2023-04-11T11:39:37.525Z,1006
2023-04-11T11:40:38.131Z,1170
2023-04-11T11:41:38.731Z,1068
2023-04-11T11:42:39.330Z,1186
2023-04-11T11:43:39.933Z,1653
2023-04-11T11:44:40.554Z,1563
2023-04-11T11:45:41.197Z,1164
2023-04-11T11:46:41.920Z,4128
2023-04-11T11:47:42.644Z,3718
2023-04-11T11:48:43.125Z,5085
2023-04-11T11:49:43.744Z,2030
2023-04-11T11:50:44.364Z,4921
2023-04-11T11:51:44.972Z,4775
2023-04-11T11:52:45.611Z,4246
2023-04-11T11:53:46.188Z,1237
2023-04-11T11:54:46.787Z,1001
2023-04-11T11:55:47.476Z,781
2023-04-11T11:56:48.086Z,613
2023-04-11T11:57:48.681Z,478
2023-04-11T11:58:49.305Z,365
2023-04-11T11:59:49.898Z,320
2023-04-11T12:00:50.525Z,303
2023-04-11T12:01:51.142Z,326
2023-04-11T12:02:51.901Z,382
2023-04-11T12:03:52.794Z,472
2023-04-11T12:04:53.823Z,652
2023-04-11T12:05:54.133Z,1119
2023-04-11T12:06:54.734Z,4623
2023-04-11T12:07:55.344Z,4820
2023-04-11T12:08:55.948Z,4792
2023-04-11T12:09:56.570Z,5034
2023-04-11T12:10:57.171Z,5152
2023-04-11T12:11:57.782Z,5124
2023-04-11T12:12:58.382Z,5090
2023-04-11T12:13:59.298Z,5006
2023-04-11T12:14:59.969Z,1136
2023-04-11T12:16:00.636Z,956
2023-04-11T12:17:01.233Z,860
2023-04-11T12:18:01.904Z,624
2023-04-11T12:19:02.461Z,433
2023-04-11T12:20:03.085Z,528
2023-04-11T12:21:03.664Z,1091
2023-04-11T12:22:04.264Z,1833
2023-04-11T12:23:04.867Z,2790
2023-04-11T12:24:05.472Z,2238
2023-04-11T12:25:06.081Z,2272
2023-04-11T12:26:06.694Z,1653
2023-04-11T12:27:08.303Z,1614
2023-04-11T12:28:08.898Z,1636
2023-04-11T12:29:09.519Z,2463
2023-04-11T12:30:10.123Z,5371
2023-04-11T12:31:10.763Z,4657
2023-04-11T12:32:11.313Z,4443
2023-04-11T12:33:11.930Z,5203
2023-04-11T12:34:12.521Z,5073
2023-04-11T12:35:13.152Z,4871
2023-04-11T12:36:13.727Z,4663
2023-04-11T12:37:14.347Z,4522
2023-04-11T12:38:17.510Z,4432
2023-04-11T12:39:16.542Z,4415
2023-04-11T12:40:17.151Z,4449
2023-04-11T12:41:31.142Z,4533
2023-04-11T12:42:23.777Z,4573
2023-04-11T12:43:20.937Z,4601
2023-04-11T12:44:21.544Z,4640
2023-04-11T12:45:22.147Z,4595
2023-04-11T12:46:22.788Z,4511
2023-04-11T12:47:23.401Z,4455
2023-04-11T12:48:23.986Z,4381
2023-04-11T12:49:24.590Z,4421
2023-04-11T12:50:25.192Z,686
2023-04-11T12:51:25.813Z,613
2023-04-11T12:52:26.412Z,585
2023-04-11T12:53:27.037Z,545
2023-04-11T12:54:27.635Z,562
2023-04-11T12:55:28.277Z,624
2023-04-11T12:56:28.874Z,703
2023-04-11T12:57:29.478Z,697
2023-04-11T12:58:30.076Z,691
2023-04-11T12:59:31.392Z,742
2023-04-11T13:00:31.296Z,877
2023-04-11T13:01:31.939Z,1102
2023-04-11T13:02:41.552Z,2261
2023-04-11T13:03:34.380Z,4218
2023-04-11T13:04:34.846Z,1636
2023-04-11T13:05:35.524Z,4590
2023-04-11T13:06:36.115Z,3656
2023-04-11T13:07:36.720Z,1445
2023-04-11T13:08:37.317Z,3954
2023-04-11T13:09:37.919Z,3735
2023-04-11T13:10:38.532Z,3594
2023-04-11T13:11:39.140Z,3735
2023-04-11T13:12:39.762Z,3645
2023-04-11T13:13:40.344Z,3645
2023-04-11T13:14:40.943Z,1057
2023-04-11T13:15:41.559Z,1215
2023-04-11T13:16:42.304Z,1580
2023-04-11T13:17:42.975Z,1226
2023-04-11T13:18:43.579Z,1141
2023-04-11T13:19:44.178Z,984
2023-04-11T13:20:44.776Z,967
2023-04-11T13:21:45.379Z,1063
2023-04-11T13:22:45.981Z,2131
2023-04-11T13:23:46.588Z,1372
2023-04-11T13:24:47.216Z,1220
2023-04-11T13:25:47.828Z,1265
2023-04-11T13:26:48.443Z,1338
2023-04-11T13:27:49.026Z,3735
2023-04-11T13:28:49.638Z,1715
2023-04-11T13:29:50.248Z,1428
2023-04-11T13:30:50.846Z,1276
2023-04-11T13:31:51.499Z,1518
2023-04-11T13:32:52.073Z,5085
2023-04-11T13:33:52.673Z,5343
2023-04-11T13:34:53.269Z,5383
2023-04-11T13:35:53.889Z,5034
2023-04-11T13:36:54.546Z,5304
2023-04-11T13:37:55.140Z,5287
2023-04-11T13:38:55.930Z,5197
2023-04-11T13:39:56.342Z,5085
2023-04-11T13:40:56.944Z,4803
2023-04-11T13:41:57.541Z,3898
2023-04-11T13:42:58.158Z,4680
2023-04-11T13:43:58.747Z,4696
2023-04-11T13:44:59.381Z,4123
2023-04-11T13:46:00.087Z,4027
2023-04-11T13:47:00.606Z,3757
2023-04-11T13:48:01.245Z,2745
2023-04-11T13:49:01.813Z,2761
2023-04-11T13:50:02.447Z,3318
2023-04-11T13:51:03.053Z,3577
2023-04-11T13:52:03.653Z,2244
2023-04-11T13:53:04.260Z,3645
2023-04-11T13:54:04.892Z,3993
2023-04-11T13:55:05.511Z,3903
2023-04-11T13:56:06.104Z,3965
2023-04-11T13:57:06.718Z,4044
2023-04-11T13:58:07.308Z,4010
2023-04-11T13:59:07.910Z,2098
2023-04-11T14:00:08.544Z,1389
2023-04-11T14:01:09.162Z,3071
2023-04-11T14:02:09.788Z,2947
2023-04-11T14:03:10.430Z,1164
2023-04-11T14:04:11.186Z,1051
2023-04-11T14:05:11.595Z,1046